Latest Weather Observations for Trepell

IDQ60801

Issued at 1:32 pm EST Thursday 7 May 2015 (issued every 30 minutes, with the page automatically refreshed every 10 minutes)

About weather observations | Map of weather stations | Latest weather observations for QLD | Other Formats
Station Details ID: 037036 Name: TREPELL AIRPORT Lat: -21.84 Lon: 140.89 Height: 266.2 m
Data from the previous 72 hours. | See also: Recent months at Trepell
Date/Time
EST
Temp
°C
App
Temp
°C
Dew
Point
Rel
Hum
%
Delta-T
°C
Wind Press
QNH
hPa
Press
MSL
hPa
Rain
since 9 am
mm
Dir
 
Spd
km/h
Gust
km/h
Spd
kts
Gust
kts
07/01:30pm 25.1 18.4 -0.9 18 11.9 S 24 33 13 18 1020.1 1019.2 0.0
07/01:00pm 24.5 17.5 -0.6 19 11.5 S 26 37 14 20 1020.6 1019.7 0.0
07/12:30pm 23.6 16.6 -0.6 20 11.0 SSE 26 37 14 20 1021.1 1020.2 0.0
07/12:00pm 23.5 17.0 0.6 22 10.6 S 24 37 13 20 1021.6 1020.7 0.0
07/11:00am 21.6 15.2 0.8 25 9.6 SSE 24 35 13 19 1022.5 1021.6 0.0
07/10:30am 21.0 13.4 0.8 26 9.3 SSE 30 37 16 20 1023.0 1022.2 0.0
07/10:00am 20.0 13.2 0.5 27 8.8 SSE 26 35 14 19 1023.0 1022.2 0.0
07/09:30am 18.9 12.8 0.5 29 8.2 SSE 22 33 12 18 1022.9 1022.1 0.0
07/09:00am 16.6 10.8 -0.1 32 7.2 S 20 26 11 14 1022.6 1021.7 0.0
07/08:30am 14.8 9.1 -0.9 34 6.6 S 19 24 10 13 1022.3 1021.4 0.0
07/08:00am 13.6 7.9 -0.8 37 6.0 SSW 19 24 10 13 1022.1 1021.2 0.0
07/07:30am 12.3 7.0 -0.9 40 5.4 SSW 17 20 9 11 1021.7 1020.8 0.0
07/07:00am 11.6 6.6 -0.9 42 5.1 SSW 15 19 8 10 1021.3 1020.4 0.0
07/06:30am 12.0 6.7 -0.8 41 5.2 SSW 17 20 9 11 1020.6 1019.7 0.0
07/06:00am 12.2 7.2 -1.0 40 5.4 SW 15 19 8 10 1020.3 1019.4 0.0
07/05:30am 12.7 7.7 -0.9 39 5.6 SSW 15 19 8 10 1020.0 1019.1 0.0
07/05:00am 13.0 8.0 -1.0 38 5.7 SSW 15 19 8 10 1019.6 1018.8 0.0
07/04:30am 13.5 8.2 -0.9 37 6.0 SSW 17 20 9 11 1019.3 1018.4 0.0
07/04:00am 14.0 8.6 -1.2 35 6.3 SSW 17 20 9 11 1019.2 1018.3 0.0
07/03:30am 14.5 9.1 -1.2 34 6.5 SSW 17 22 9 12 1019.0 1018.1 0.0
07/03:00am 14.5 9.8 -1.6 33 6.6 SSW 13 17 7 9 1018.9 1018.0 0.0
07/02:30am 14.9 9.8 -1.6 32 6.8 SSW 15 19 8 10 1018.8 1017.9 0.0
07/02:00am 15.5 10.1 -1.5 31 7.1 SSW 17 22 9 12 1018.8 1017.9 0.0
07/01:30am 16.1 10.7 -1.5 30 7.4 SSW 17 22 9 12 1019.0 1018.1 0.0
07/01:00am 16.6 11.6 -1.5 29 7.6 SSW 15 19 8 10 1019.2 1018.3 0.0
07/12:30am 17.2 11.7 -1.9 27 8.0 SSW 17 20 9 11 1019.3 1018.4 0.0
07/12:00am 17.8 12.3 -1.9 26 8.3 SSW 17 22 9 12 1019.5 1018.7 0.0
 
Date/Time
EST
Temp
°C
App
Temp
°C
Dew
Point
Rel
Hum
%
Delta-T
°C
Wind Press
QNH
hPa
Press
MSL
hPa
Rain
since 9 am
mm
Dir
 
Spd
km/h
Gust
km/h
Spd
kts
Gust
kts
06/11:30pm 18.3 12.7 -2.6 24 8.7 SSW 17 22 9 12 1019.6 1018.8 0.0
06/11:00pm 18.9 13.3 -2.7 23 9.0 SSW 17 22 9 12 1019.9 1019.0 0.0
06/10:30pm 19.5 13.5 -3.4 21 9.5 SSW 19 22 10 12 1019.9 1019.0 0.0
06/10:00pm 20.2 14.2 -3.4 20 9.9 SSW 19 24 10 13 1019.7 1018.9 0.0
06/09:30pm 20.5 14.3 -4.6 18 10.3 SSW 19 22 10 12 1019.5 1018.7 0.0
06/09:00pm 21.2 15.0 -4.8 17 10.7 SSW 19 24 10 13 1019.1 1018.2 0.0
06/08:30pm 21.8 16.0 -5.1 16 11.1 SSW 17 20 9 11 1018.8 1017.9 0.0
06/08:00pm 22.5 16.6 -5.4 15 11.5 SSW 17 22 9 12 1018.6 1017.7 0.0
06/07:30pm 23.2 16.9 -5.7 14 11.9 SSW 19 26 10 14 1018.2 1017.3 0.0
06/07:00pm 24.3 17.8 -5.8 13 12.5 SSW 20 24 11 13 1017.8 1016.9 0.0
06/06:30pm 25.3 18.4 -6.1 12 13.1 S 22 32 12 17 1017.4 1016.5 0.0
06/06:00pm 26.3 18.6 -6.5 11 13.7 S 26 35 14 19 1017.0 1016.1 0.0
06/05:30pm 27.3 19.3 -5.7 11 14.1 S 28 39 15 21 1016.5 1015.6 0.0
06/05:00pm 27.9 20.4 -4.1 12 14.2 SSW 26 35 14 19 1016.3 1015.4 0.0
06/04:30pm 28.0 20.0 -2.0 14 13.8 SSW 30 41 16 22 1016.2 1015.2 0.0
06/04:00pm 28.3 20.9 -0.8 15 13.7 S 28 39 15 21 1016.2 1015.2 0.0
06/03:30pm 28.5 21.6 0.3 16 13.6 S 26 35 14 19 1016.2 1015.2 0.0
06/03:00pm 28.0 20.9 1.5 18 13.0 S 28 39 15 21 1016.5 1015.6 0.0
06/02:30pm 28.0 21.2 0.7 17 13.2 SSW 26 35 14 19 1016.8 1015.9 0.0
06/02:00pm 27.9 21.6 1.4 18 12.9 SSW 24 32 13 17 1017.1 1016.2 0.0
06/01:30pm 27.4 20.6 1.0 18 12.8 S 26 39 14 21 1017.6 1016.7 0.0
06/01:00pm 26.4 19.5 0.2 18 12.4 S 26 37 14 20 1018.1 1017.2 0.0
06/12:30pm 25.9 19.1 0.5 19 12.0 S 26 33 14 18 1018.6 1017.7 0.0
06/12:00pm 24.7 17.8 0.3 20 11.4 S 26 33 14 18 1019.2 1018.3 0.0
06/11:30am 23.9 17.3 -0.4 20 11.1 S 24 33 13 18 1019.6 1018.8 0.0
06/11:00am 22.9 16.7 -0.6 21 10.6 S 22 32 12 17 1020.0 1019.1 0.0
06/10:30am 22.2 15.6 -0.5 22 10.3 S 24 33 13 18 1020.1 1019.2 0.0
06/10:00am 21.5 14.4 -1.1 22 10.0 S 26 37 14 20 1020.2 1019.3 0.0
06/09:30am 20.3 13.6 -0.9 24 9.4 S 24 32 13 17 1020.2 1019.3 0.0
06/09:00am 18.6 11.5 -1.3 26 8.6 S 26 35 14 19 1019.7 1018.9 0.0
06/08:30am 17.6 10.8 -2.1 26 8.3 SSW 24 32 13 17 1019.6 1018.8 0.0
06/08:00am 17.0 10.5 -2.1 27 8.0 SSW 22 28 12 15 1019.4 1018.5 0.0
06/07:30am 16.3 10.2 -2.7 27 7.8 SSW 20 26 11 14 1019.1 1018.2 0.0
06/07:00am 16.0 9.8 -3.0 27 7.7 SSW 20 28 11 15 1018.6 1017.7 0.0
06/06:30am 16.3 10.1 -3.2 26 7.9 SSW 20 28 11 15 1018.2 1017.3 0.0
06/06:00am 16.6 10.0 -3.0 26 8.0 SW 22 28 12 15 1017.7 1016.8 0.0
06/05:30am 17.0 10.5 -2.6 26 8.1 SW 22 28 12 15 1017.3 1016.4 0.0
06/05:00am 17.3 11.3 -1.9 27 8.1 SW 20 30 11 16 1017.1 1016.2 0.0
06/04:30am 17.8 12.1 -0.5 29 8.0 SSW 19 24 10 13 1016.7 1015.8 0.0
06/04:00am 18.3 12.8 0.4 30 8.0 SSW 19 24 10 13 1016.4 1015.5 0.0
06/03:30am 18.7 13.3 1.2 31 7.9 SW 19 22 10 12 1016.2 1015.2 0.0
06/03:00am 19.2 14.3 1.7 31 8.0 SW 17 22 9 12 1016.2 1015.2 0.0
06/02:30am 19.6 14.8 2.5 32 8.0 SW 17 22 9 12 1016.0 1015.0 0.0
06/02:00am 20.1 15.7 2.5 31 8.3 SW 15 19 8 10 1016.0 1015.0 0.0
06/01:30am 20.7 16.3 2.5 30 8.6 SSW 15 19 8 10 1015.8 1014.9 0.0
06/01:00am 21.3 16.5 2.6 29 8.9 SSW 17 22 9 12 1015.8 1014.9 0.0
06/12:30am 22.0 16.9 3.2 29 9.1 SSW 19 22 10 12 1015.7 1014.8 0.0
06/12:00am 22.4 17.7 3.0 28 9.4 SSW 17 20 9 11 1015.5 1014.6 0.0
 
Date/Time
EST
Temp
°C
App
Temp
°C
Dew
Point
Rel
Hum
%
Delta-T
°C
Wind Press
QNH
hPa
Press
MSL
hPa
Rain
since 9 am
mm
Dir
 
Spd
km/h
Gust
km/h
Spd
kts
Gust
kts
05/11:30pm 23.2 18.1 3.2 27 9.8 SSW 19 24 10 13 1015.3 1014.4 0.0
05/11:00pm 24.2 18.6 3.5 26 10.2 SSW 22 30 12 16 1015.0 1014.1 0.0
05/10:30pm 24.9 18.8 3.0 24 10.8 SSW 24 32 13 17 1014.9 1014.0 0.0
05/10:00pm 25.6 19.9 2.9 23 11.2 SSW 22 30 12 16 1014.5 1013.6 0.0
05/09:30pm 26.1 20.0 2.7 22 11.6 SSW 24 32 13 17 1014.2 1013.3 0.0
05/09:00pm 26.7 20.6 2.6 21 11.9 SSW 24 33 13 18 1013.9 1013.0 0.0
05/08:30pm 26.8 22.8 2.7 21 12.0 SSW 13 17 7 9 1013.4 1012.5 0.0
05/08:00pm 27.5 23.5 2.6 20 12.4 SSW 13 17 7 9 1013.1 1012.2 0.0
05/07:30pm 28.5 24.1 2.7 19 12.9 SSW 15 19 8 10 1012.6 1011.6 0.0
05/07:00pm 29.3 25.2 2.5 18 13.5 SSW 13 19 7 10 1012.3 1011.3 0.0
05/06:30pm 30.8 26.1 2.9 17 14.2 SSW 17 20 9 11 1011.8 1010.9 0.0
05/06:00pm 31.9 26.6 3.0 16 14.9 SSW 20 32 11 17 1011.6 1010.7 0.0
05/05:30pm 33.0 27.7 2.0 14 15.8 SSW 19 26 10 14 1011.3 1010.4 0.0
05/05:00pm 33.7 28.9 2.5 14 16.1 SSW 17 28 9 15 1011.0 1010.1 0.0
05/04:30pm 33.9 29.5 2.7 14 16.2 SSW 15 22 8 12 1011.0 1010.1 0.0
05/04:00pm 34.2 29.5 2.9 14 16.3 SSW 17 28 9 15 1011.1 1010.2 0.0
05/03:30pm 33.9 29.1 2.7 14 16.2 S 17 26 9 14 1011.3 1010.4 0.0
05/03:00pm 33.1 29.0 2.0 14 15.9 SW 13 20 7 11 1011.3 1010.4 0.0
05/02:30pm 33.8 29.8 2.6 14 16.1 S 13 20 7 11 1011.6 1010.7 0.0
05/02:00pm 33.5 30.0 3.3 15 15.8 SE 11 17 6 9 1012.0 1011.0 0.0
05/01:30pm 32.7 30.0 3.6 16 15.2 NNW 7 11 4 6 1012.5 1011.5 0.0
05/01:00pm 32.0 29.8 3.1 16 14.9 NE 4 7 2 4 1012.8 1011.8 0.0
05/12:30pm 31.6 28.1 3.6 17 14.5 WSW 11 15 6 8 1013.3 1012.4 0.0
05/12:00pm 31.2 28.2 4.1 18 14.2 SSW 9 13 5 7 1013.8 1012.9 0.0
05/11:30am 30.7 27.6 3.7 18 14.0 E 9 13 5 7 1014.4 1013.5 0.0
05/11:00am 29.9 27.4 4.5 20 13.2 NNE 7 13 4 7 1014.7 1013.8 0.0
05/10:30am 28.9 26.3 4.4 21 12.7 NNE 7 13 4 7 1015.0 1014.1 0.0
05/10:00am 27.4 24.5 4.5 23 11.8 NE 9 13 5 7 1015.1 1014.2 0.0
05/09:30am 25.7 22.6 3.6 24 11.1 ENE 9 11 5 6 1014.9 1014.0 0.0
05/09:00am 24.8 23.4 3.5 25 10.6 CALM 0 7 0 4 1014.6 1013.7 0.0
05/08:30am 22.7 21.3 3.3 28 9.5 CALM 0 0 0 0 1014.4 1013.5 0.0
05/08:00am 19.7 17.3 2.1 31 8.2 WNW 4 6 2 3 1014.0 1013.1 0.0
05/07:30am 17.2 14.3 1.2 34 7.2 NW 6 7 3 4 1013.9 1013.0 0.0
05/07:00am 16.1 14.3 1.0 36 6.7 CALM 0 0 0 0 1013.5 1012.6 0.0
05/06:30am 16.9 13.9 1.8 36 6.8 N 7 9 4 5 1013.4 1012.5 0.0
05/06:00am 17.0 13.9 1.4 35 7.0 NW 7 9 4 5 1013.2 1012.3 0.0
05/05:30am 16.9 13.8 1.4 35 7.0 WNW 7 7 4 4 1013.1 1012.2 0.0
05/05:00am 17.1 13.5 0.7 33 7.3 WNW 9 11 5 6 1013.0 1012.1 0.0
05/04:30am 17.9 14.8 1.4 33 7.5 WNW 7 9 4 5 1013.0 1012.1 0.0
05/04:00am 17.7 14.5 0.8 32 7.5 W 7 7 4 4 1013.0 1012.1 0.0
05/03:30am 17.3 14.1 0.9 33 7.3 W 7 9 4 5 1013.0 1012.1 0.0
05/03:00am 17.6 14.3 0.3 31 7.6 W 7 9 4 5 1013.1 1012.2 0.0
05/02:30am 17.8 16.0 0.9 32 7.6 CALM 0 0 0 0 1013.1 1012.2 0.0
05/02:00am 18.5 15.4 1.5 32 7.8 WSW 7 9 4 5 1013.4 1012.5 0.0
05/01:30am 19.0 15.9 1.1 30 8.1 W 7 9 4 5 1013.6 1012.7 0.0
05/01:00am 19.3 16.2 0.4 28 8.5 WNW 6 7 3 4 1013.6 1012.7 0.0
05/12:30am 20.1 17.0 1.5 29 8.6 WSW 7 7 4 4 1013.7 1012.8 0.0
05/12:00am 20.8 17.8 2.1 29 8.8 SW 7 9 4 5 1014.0 1013.1 0.0
 
Date/Time
EST
Temp
°C
App
Temp
°C
Dew
Point
Rel
Hum
%
Delta-T
°C
Wind Press
QNH
hPa
Press
MSL
hPa
Rain
since 9 am
mm
Dir
 
Spd
km/h
Gust
km/h
Spd
kts
Gust
kts
04/11:30pm 21.0 18.0 2.3 29 8.8 SW 7 11 4 6 1014.2 1013.3 0.0
04/11:00pm 22.2 19.5 2.8 28 9.3 SW 6 7 3 4 1014.3 1013.4 0.0
04/10:30pm 22.5 19.8 2.6 27 9.6 SW 6 7 3 4 1014.4 1013.5 0.0
04/10:00pm 22.7 19.4 2.2 26 9.8 SSW 9 9 5 5 1014.4 1013.5 0.0
04/09:30pm 23.3 19.9 1.6 24 10.3 SSW 9 11 5 6 1014.3 1013.4 0.0
04/09:00pm 24.4 20.8 3.1 25 10.5 S 11 13 6 7 1014.0 1013.1 0.0
04/08:30pm 24.5 21.2 2.6 24 10.7 SSW 9 11 5 6 1013.9 1013.0 0.0
04/08:00pm 25.4 22.2 2.8 23 11.1 SSW 9 11 5 6 1013.6 1012.7 0.0
04/07:30pm 26.4 23.2 3.0 22 11.6 S 9 13 5 7 1013.4 1012.5 0.0
04/07:00pm 27.3 24.1 3.1 21 12.1 SSW 9 11 5 6 1013.0 1012.1 0.0
04/06:30pm 28.9 25.4 3.7 20 12.9 SSW 11 13 6 7 1012.6 1011.6 0.0
04/06:00pm 30.2 26.3 3.3 18 13.8 S 13 19 7 10 1012.3 1011.3 0.0
04/05:30pm 31.2 27.3 3.3 17 14.4 SW 13 20 7 11 1012.0 1011.0 0.0
04/05:00pm 31.7 28.2 3.7 17 14.6 SSW 11 19 6 10 1011.6 1010.7 0.0
04/04:30pm 31.9 28.8 3.8 17 14.7 S 9 19 5 10 1011.6 1010.7 0.0
04/04:00pm 31.4 28.3 3.4 17 14.5 SSW 9 17 5 9 1011.6 1010.7 0.0
04/03:30pm 31.6 27.7 3.6 17 14.5 SSE 13 20 7 11 1011.6 1010.7 0.0
04/03:00pm 31.7 27.6 4.5 18 14.4 SSW 15 22 8 12 1012.0 1011.0 0.0
04/02:30pm 31.5 28.5 4.3 18 14.3 NNE 9 17 5 9 1012.3 1011.3 0.0
04/02:00pm 30.8 27.9 4.5 19 13.8 SSE 9 17 5 9 1012.8 1011.8 0.0

Other Formats:

Comma delimited format used in spreadsheet applications
http://www.bom.gov.au/fwo/IDQ60801/IDQ60801.94338.axf

JavaScript Object Notation format (JSON) in row-major order
http://www.bom.gov.au/fwo/IDQ60801/IDQ60801.94338.json